Time;durP1;ratioP1;P1;durP2;ratioP2;P2;SDS_P1;SDS_P2;PMS_P1;PMS_P2;Temp;Humidity;BMP_temperature;BMP_pressure;BME280_temperature;BME280_humidity;BME280_pressure;Samples;Min_cycle;Max_cycle;Signal;HPM_P1;HPM_P2
2022/06/18 00:01:41;;;;;;;7.18;6.53;;;;;;;21.70;78.55;98373.63;5033779;28;20630;-60
2022/06/18 00:04:12;;;;;;;7.07;6.57;;;;;;;21.71;78.08;98371.78;5016148;28;20204;-60
2022/06/18 00:06:54;;;;;;;7.20;6.70;;;;;;;21.62;78.35;98370.19;5033873;28;20265;-61
2022/06/18 00:09:23;;;;;;;7.50;6.90;;;;;;;21.58;78.11;98374.16;5033826;28;20197;-60
2022/06/18 00:14:35;;;;;;;7.55;6.78;;;;;;;21.57;77.70;98367.25;5034034;28;20232;-60
2022/06/18 00:17:02;;;;;;;6.93;6.35;;;;;;;21.58;77.60;98366.25;5033718;28;20666;-59
2022/06/18 00:19:27;;;;;;;6.97;6.38;;;;;;;21.40;78.80;98365.72;5033814;28;20181;-60
2022/06/18 00:21:53;;;;;;;7.35;6.63;;;;;;;21.42;79.07;98366.34;5033551;28;20590;-59
2022/06/18 00:24:20;;;;;;;6.90;6.30;;;;;;;21.27;79.98;98368.09;5033474;28;20174;-59
2022/06/18 00:26:46;;;;;;;10.20;6.85;;;;;;;21.27;79.76;98360.19;5033403;28;20198;-60
2022/06/18 00:29:15;;;;;;;7.82;7.13;;;;;;;21.16;79.99;98355.31;5033492;28;20220;-60
2022/06/18 00:31:40;;;;;;;7.88;7.10;;;;;;;21.09;80.18;98352.53;5033421;28;20177;-59
2022/06/18 00:34:06;;;;;;;6.93;6.32;;;;;;;21.02;80.33;98353.38;5033592;28;20174;-61
2022/06/18 00:36:32;;;;;;;7.97;6.93;;;;;;;20.98;80.37;98354.75;5033535;28;20178;-60
2022/06/18 00:38:57;;;;;;;7.38;6.82;;;;;;;20.84;80.81;98344.88;5033494;28;20631;-60
2022/06/18 00:41:25;;;;;;;7.85;6.78;;;;;;;20.94;80.69;98348.19;5033195;28;20647;-60
2022/06/18 00:44:00;;;;;;;7.82;7.05;;;;;;;20.82;80.76;98349.50;5032292;28;20693;-59
2022/06/18 00:46:49;;;;;;;8.48;7.25;;;;;;;20.76;81.22;98343.09;5033417;28;20199;-60
2022/06/18 00:49:27;;;;;;;7.78;7.03;;;;;;;20.73;81.49;98340.84;5033212;28;20622;-60
2022/06/18 00:52:04;;;;;;;6.97;6.38;;;;;;;20.83;80.89;98351.97;5016223;28;20186;-60
2022/06/18 00:54:40;;;;;;;8.65;7.72;;;;;;;20.88;80.76;98347.06;5033187;28;20164;-60
2022/06/18 00:57:10;;;;;;;8.40;7.50;;;;;;;20.89;80.47;98346.06;5033130;28;20180;-60
2022/06/18 00:59:48;;;;;;;7.38;6.80;;;;;;;20.90;80.45;98337.19;5033001;28;20224;-60
2022/06/18 01:02:21;;;;;;;9.18;7.13;;;;;;;20.97;80.38;98334.69;5032662;28;20327;-60
2022/06/18 01:04:46;;;;;;;7.70;6.70;;;;;;;21.00;80.49;98331.72;5032989;28;20173;-59
2022/06/18 01:07:26;;;;;;;7.60;6.65;;;;;;;20.98;80.69;98325.81;5032617;28;20174;-59
2022/06/18 01:09:53;;;;;;;8.68;6.90;;;;;;;21.01;80.61;98328.09;5014906;28;20208;-60
2022/06/18 01:12:19;;;;;;;7.93;6.22;;;;;;;20.93;81.54;98320.25;5032679;28;20170;-60
2022/06/18 01:14:49;;;;;;;7.35;6.50;;;;;;;20.82;82.73;98312.69;5032674;28;20244;-60
2022/06/18 01:17:16;;;;;;;7.15;5.60;;;;;;;20.80;83.26;98307.59;5032873;28;20158;-61
2022/06/18 01:19:46;;;;;;;8.02;5.88;;;;;;;20.88;82.98;98317.25;5032560;28;20279;-60
2022/06/18 01:22:38;;;;;;;6.93;5.57;;;;;;;20.82;83.57;98316.16;5032790;28;20164;-60
2022/06/18 01:25:06;;;;;;;5.45;4.95;;;;;;;20.79;83.04;98318.28;5032556;28;20168;-60
2022/06/18 01:27:34;;;;;;;5.45;4.75;;;;;;;20.80;82.38;98304.16;5032640;28;20192;-60
2022/06/18 01:29:59;;;;;;;5.40;4.88;;;;;;;20.73;82.96;98309.28;5032361;28;20280;-60
2022/06/18 01:32:25;;;;;;;4.82;4.45;;;;;;;21.01;77.03;98307.03;5032350;28;20699;-60
2022/06/18 01:34:51;;;;;;;4.75;4.45;;;;;;;21.30;74.70;98312.44;5032317;28;20253;-60
2022/06/18 01:37:17;;;;;;;5.00;4.60;;;;;;;21.61;72.36;98310.59;5032324;28;20174;-60
2022/06/18 01:39:46;;;;;;;4.85;4.40;;;;;;;21.87;70.34;98305.81;5032437;28;20200;-60
2022/06/18 01:42:18;;;;;;;5.32;4.82;;;;;;;21.98;70.40;98302.75;5032159;28;20229;-60
2022/06/18 01:45:03;;;;;;;5.45;5.00;;;;;;;22.00;71.69;98300.72;5032183;28;20158;-60
2022/06/18 01:47:39;;;;;;;6.90;5.50;;;;;;;22.06;71.86;98292.13;5032152;28;20627;-60
2022/06/18 01:50:14;;;;;;;5.63;5.15;;;;;;;22.01;73.84;98291.81;5032259;28;20193;-59
2022/06/18 01:52:45;;;;;;;5.50;5.00;;;;;;;22.07;74.31;98291.09;5032372;28;20193;-60
2022/06/18 01:55:18;;;;;;;6.28;5.15;;;;;;;22.07;74.97;98291.94;5031924;28;20162;-60
2022/06/18 01:57:51;;;;;;;8.98;5.60;;;;;;;22.06;75.41;98300.84;5031987;28;20660;-60
2022/06/18 02:00:24;;;;;;;6.43;5.20;;;;;;;22.05;75.62;98288.69;5031848;28;20150;-60
2022/06/18 02:02:50;;;;;;;5.38;4.97;;;;;;;21.94;75.70;98298.81;5031932;28;20372;-60
2022/06/18 02:05:17;;;;;;;5.13;4.68;;;;;;;21.94;75.47;98304.91;5031928;28;20651;-59
2022/06/18 02:07:45;;;;;;;5.00;4.60;;;;;;;21.90;76.11;98297.53;5031987;28;20174;-59
2022/06/18 02:10:36;;;;;;;5.55;5.07;;;;;;;21.89;75.92;98303.78;5031774;28;20208;-60
2022/06/18 02:13:03;;;;;;;5.30;4.90;;;;;;;21.96;75.11;98305.53;5013859;28;20228;-61
2022/06/18 02:15:34;;;;;;;5.57;5.07;;;;;;;21.87;75.74;98305.81;5032040;28;20247;-60
2022/06/18 02:18:05;;;;;;;5.80;5.30;;;;;;;21.99;74.75;98309.66;5031794;28;20176;-59
2022/06/18 02:20:36;;;;;;;5.50;5.05;;;;;;;21.97;75.42;98316.91;5032140;28;20162;-59
2022/06/18 02:23:02;;;;;;;5.20;4.75;;;;;;;21.95;76.11;98311.00;5031746;28;20698;-60
2022/06/18 02:25:30;;;;;;;5.25;4.85;;;;;;;22.03;75.96;98317.00;5031710;28;20257;-60
2022/06/18 02:28:01;;;;;;;4.57;4.28;;;;;;;22.06;75.75;98314.03;5031789;28;20276;-60
2022/06/18 02:30:34;;;;;;;5.70;4.68;;;;;;;22.05;75.37;98315.03;5031800;28;20209;-60
2022/06/18 02:33:22;;;;;;;5.15;4.70;;;;;;;21.91;76.60;98322.91;5031927;28;20604;-61
2022/06/18 02:35:48;;;;;;;5.20;4.68;;;;;;;21.85;76.81;98324.41;5023431;28;20623;-60
2022/06/18 02:38:22;;;;;;;6.13;5.43;;;;;;;21.78;78.29;98328.75;5031848;28;20236;-60
2022/06/18 02:40:47;;;;;;;5.75;4.95;;;;;;;21.94;75.93;98323.34;5031882;28;20185;-60
2022/06/18 02:43:15;;;;;;;5.03;4.70;;;;;;;21.82;76.81;98326.59;5031751;28;20173;-59
2022/06/18 02:45:44;;;;;;;5.88;5.20;;;;;;;21.66;78.67;98324.03;5031536;28;20178;-59
2022/06/18 02:48:10;;;;;;;5.63;5.15;;;;;;;21.72;76.65;98318.09;5031486;28;20559;-60
2022/06/18 02:50:39;;;;;;;5.22;4.80;;;;;;;21.62;77.42;98318.31;5031343;28;20229;-60
2022/06/18 02:53:07;;;;;;;5.18;4.68;;;;;;;21.73;75.72;98322.41;5031498;28;20209;-60
2022/06/18 02:55:35;;;;;;;6.45;5.35;;;;;;;21.73;76.72;98322.41;5031427;28;20200;-59
2022/06/18 02:58:25;;;;;;;6.65;5.78;;;;;;;21.67;79.39;98320.44;5031349;28;20647;-60
2022/06/18 03:00:55;;;;;;;6.35;4.78;;;;;;;21.61;80.16;98315.88;5031392;28;20210;-59
2022/06/18 03:03:28;;;;;;;5.72;5.32;;;;;;;21.74;78.00;98318.75;5031327;28;20170;-59
2022/06/18 03:05:54;;;;;;;5.60;5.20;;;;;;;21.56;79.85;98318.22;5014733;28;20182;-60
2022/06/18 03:08:24;;;;;;;5.85;5.38;;;;;;;21.50;80.56;98318.91;5034864;28;20679;-60
2022/06/18 03:13:36;;;;;;;4.88;4.47;;;;;;;21.46;82.55;98326.34;5034894;28;20238;-60
2022/06/18 03:16:03;;;;;;;5.25;4.78;;;;;;;21.34;82.71;98324.28;5017089;28;20621;-61
2022/06/18 03:18:30;;;;;;;5.10;4.65;;;;;;;21.35;83.07;98326.75;5034764;28;20201;-60
2022/06/18 03:20:59;;;;;;;4.93;4.53;;;;;;;21.51;78.94;98323.97;5034692;28;20631;-60
2022/06/18 03:23:25;;;;;;;4.80;4.50;;;;;;;21.75;74.08;98317.75;5034671;28;20244;-60
2022/06/18 03:25:52;;;;;;;5.65;5.03;;;;;;;21.72;75.63;98318.09;5034627;28;20713;-60
2022/06/18 03:28:20;;;;;;;5.15;4.70;;;;;;;21.85;73.39;98323.63;5034664;28;20240;-60
2022/06/18 03:30:46;;;;;;;5.82;5.32;;;;;;;21.91;74.32;98330.81;5034500;28;20670;-60
2022/06/18 03:33:12;;;;;;;5.30;5.00;;;;;;;21.94;73.94;98318.09;5034476;28;20185;-60
2022/06/18 03:35:43;;;;;;;5.50;5.00;;;;;;;21.93;76.15;98327.00;5034793;28;20176;-60
2022/06/18 03:38:09;;;;;;;6.13;5.60;;;;;;;21.98;74.40;98323.81;5034377;28;20161;-60
2022/06/18 03:40:35;;;;;;;7.05;6.28;;;;;;;22.03;74.34;98321.47;5034575;28;20165;-59
2022/06/18 03:43:00;;;;;;;6.60;5.72;;;;;;;21.85;76.21;98328.88;5034395;28;20534;-61
2022/06/18 03:45:26;;;;;;;7.30;5.70;;;;;;;21.90;76.32;98335.25;5034233;28;20170;-59
2022/06/18 03:47:51;;;;;;;5.65;5.10;;;;;;;21.96;78.09;98342.44;5034528;28;20177;-60
2022/06/18 03:50:19;;;;;;;5.78;5.32;;;;;;;21.91;80.11;98330.81;5034033;28;20544;-60
2022/06/18 03:52:45;;;;;;;5.07;4.78;;;;;;;21.94;82.55;98338.34;5034224;28;20647;-60
2022/06/18 03:55:15;;;;;;;6.55;6.05;;;;;;;21.94;77.18;98340.97;5034100;28;20176;-59
2022/06/18 03:57:41;;;;;;;6.63;6.00;;;;;;;21.89;77.75;98338.03;5034065;28;20176;-60
2022/06/18 04:00:12;;;;;;;7.35;5.75;;;;;;;21.75;78.49;98337.03;5034011;28;20227;-60
2022/06/18 04:02:38;;;;;;;6.57;6.00;;;;;;;21.79;77.30;98334.84;5034292;28;20197;-60
2022/06/18 04:05:04;;;;;;;7.20;6.50;;;;;;;21.74;77.55;98332.72;5033886;28;20247;-60
2022/06/18 04:07:29;;;;;;;10.23;6.63;;;;;;;21.76;77.97;98329.94;5034116;28;20720;-61
2022/06/18 04:09:56;;;;;;;6.97;6.38;;;;;;;21.79;78.33;98332.22;5033694;28;20721;-59
2022/06/18 04:12:22;;;;;;;6.82;6.22;;;;;;;21.71;77.92;98334.91;5033978;28;20178;-60
2022/06/18 04:14:47;;;;;;;6.60;6.05;;;;;;;21.71;77.61;98333.09;5033994;28;20239;-60
2022/06/18 04:17:14;;;;;;;6.80;6.22;;;;;;;21.64;78.09;98336.56;5033655;28;20606;-59
2022/06/18 04:19:40;;;;;;;6.75;6.07;;;;;;;21.55;78.54;98334.97;5033652;28;20173;-60
2022/06/18 04:22:06;;;;;;;7.25;6.55;;;;;;;21.38;80.20;98341.38;5033632;28;20170;-59
2022/06/18 04:24:32;;;;;;;7.43;6.80;;;;;;;21.42;80.39;98342.66;5033524;28;20576;-60
2022/06/18 04:26:58;;;;;;;7.70;7.10;;;;;;;21.45;80.46;98342.31;5033398;28;20178;-60
2022/06/18 04:29:24;;;;;;;7.45;6.85;;;;;;;21.39;81.42;98332.47;5033384;28;20186;-60
2022/06/18 04:31:50;;;;;;;6.57;6.07;;;;;;;21.57;84.44;98351.44;5033439;28;20169;-60
2022/06/18 04:34:15;;;;;;;9.85;6.07;;;;;;;21.53;88.74;98350.97;5033564;28;20651;-60
2022/06/18 04:36:42;;;;;;;6.38;5.88;;;;;;;21.51;83.73;98347.69;5033328;28;20173;-60
2022/06/18 04:39:08;;;;;;;7.07;6.45;;;;;;;21.65;84.26;98348.75;5033217;28;20257;-60
2022/06/18 04:41:34;;;;;;;7.35;6.72;;;;;;;21.69;82.39;98360.59;5015547;28;20173;-60
2022/06/18 04:44:00;;;;;;;6.80;6.18;;;;;;;21.57;82.48;98356.72;5015439;28;20651;-60
2022/06/18 04:46:26;;;;;;;7.65;7.05;;;;;;;21.59;81.95;98355.53;5033393;28;20177;-59
2022/06/18 04:48:52;;;;;;;7.63;6.38;;;;;;;21.62;80.18;98354.38;5032984;28;20662;-60
2022/06/18 04:51:17;;;;;;;7.88;6.28;;;;;;;21.64;80.73;98362.91;5032990;28;20169;-60
2022/06/18 04:53:43;;;;;;;7.28;6.53;;;;;;;21.62;80.49;98355.19;5033220;28;20178;-60
2022/06/18 04:56:09;;;;;;;7.97;7.28;;;;;;;21.61;80.72;98368.53;5033058;28;20180;-60
2022/06/18 04:58:35;;;;;;;6.75;6.15;;;;;;;21.69;80.53;98365.88;5033143;28;20264;-60
2022/06/18 05:01:02;;;;;;;7.30;6.70;;;;;;;21.76;81.36;98365.00;5014951;28;20268;-60
2022/06/18 05:03:27;;;;;;;7.75;7.10;;;;;;;21.80;80.88;98361.00;5032751;28;20261;-60
2022/06/18 05:05:53;;;;;;;7.22;6.63;;;;;;;21.90;79.89;98363.41;5032761;28;20178;-60
2022/06/18 05:08:18;;;;;;;6.68;6.07;;;;;;;21.89;79.66;98367.03;5032738;28;20174;-60
2022/06/18 05:10:44;;;;;;;11.27;6.97;;;;;;;22.01;79.25;98374.34;5032600;28;20197;-60
2022/06/18 05:13:11;;;;;;;7.75;7.10;;;;;;;21.96;79.64;98376.69;5032838;28;20184;-59
2022/06/18 05:15:38;;;;;;;7.38;6.70;;;;;;;21.98;79.50;98387.06;5014870;28;20178;-60
2022/06/18 05:18:05;;;;;;;6.80;6.30;;;;;;;21.98;78.83;98376.53;5032657;28;20185;-60
2022/06/18 05:20:31;;;;;;;7.20;6.53;;;;;;;21.99;78.80;98383.44;5032500;28;20568;-60
2022/06/18 05:22:56;;;;;;;7.53;6.93;;;;;;;21.89;79.88;98388.09;5032387;28;20174;-59
2022/06/18 05:25:21;;;;;;;7.20;6.60;;;;;;;21.95;79.76;98382.97;5032440;28;20185;-60
2022/06/18 05:27:47;;;;;;;7.57;6.93;;;;;;;21.71;81.29;98384.94;5032391;28;20166;-60
2022/06/18 05:30:21;;;;;;;7.78;7.07;;;;;;;21.71;81.01;98382.31;5031881;28;20190;-59
2022/06/18 05:32:47;;;;;;;8.32;7.10;;;;;;;21.65;81.46;98391.72;5032831;28;20158;-59
2022/06/18 05:35:14;;;;;;;6.88;6.35;;;;;;;21.69;81.46;98384.31;5032291;28;20308;-60
2022/06/18 05:37:40;;;;;;;11.23;7.05;;;;;;;21.67;81.83;98383.66;5032252;28;20196;-60
2022/06/18 05:40:06;;;;;;;7.53;6.82;;;;;;;21.72;82.07;98386.59;5032183;28;20690;-60
2022/06/18 05:42:33;;;;;;;6.63;6.03;;;;;;;21.88;81.04;98392.56;5032485;28;20181;-60
2022/06/18 05:44:58;;;;;;;8.80;6.95;;;;;;;21.81;81.84;98386.38;5032130;28;20569;-59
2022/06/18 05:47:31;;;;;;;7.10;6.35;;;;;;;21.78;82.61;98386.72;5032109;28;20174;-60
2022/06/18 05:49:56;;;;;;;7.30;6.70;;;;;;;21.80;82.36;98389.97;5032218;28;20193;-60
2022/06/18 05:52:23;;;;;;;7.30;6.25;;;;;;;21.82;81.66;98387.19;5032023;28;20745;-60
2022/06/18 05:54:51;;;;;;;8.30;7.20;;;;;;;21.80;82.39;98389.97;5032123;28;20205;-60
2022/06/18 05:57:17;;;;;;;7.20;6.60;;;;;;;21.90;81.97;98393.22;5032269;28;20204;-59
2022/06/18 05:59:42;;;;;;;7.10;6.50;;;;;;;21.92;81.40;98395.66;5031770;28;20174;-59
2022/06/18 06:02:11;;;;;;;7.80;6.15;;;;;;;21.77;82.33;98395.63;5030793;28;20221;-60
2022/06/18 06:04:39;;;;;;;7.63;7.03;;;;;;;21.84;82.35;98396.53;5030797;28;20618;-60
2022/06/18 06:07:25;;;;;;;7.50;6.80;;;;;;;21.99;81.85;98407.16;5026405;28;20763;-60
2022/06/18 06:12:36;;;;;;;8.30;6.85;;;;;;;22.12;82.20;98404.72;5032253;28;20168;-60
2022/06/18 06:15:01;;;;;;;7.05;6.35;;;;;;;22.09;82.77;98399.81;5031849;28;20174;-60
2022/06/18 06:17:27;;;;;;;9.48;7.03;;;;;;;22.26;81.79;98401.31;5031796;28;20545;-60
2022/06/18 06:20:00;;;;;;;9.40;6.80;;;;;;;22.39;81.07;98414.72;5032279;28;20170;-60
2022/06/18 06:22:26;;;;;;;7.20;6.70;;;;;;;22.40;81.40;98408.44;5032075;28;20169;-60
2022/06/18 06:24:52;;;;;;;7.70;6.50;;;;;;;22.52;80.44;98404.41;5031674;28;20325;-60
2022/06/18 06:27:18;;;;;;;7.50;6.70;;;;;;;22.48;80.21;98403.09;5013979;28;20265;-60
2022/06/18 06:29:43;;;;;;;7.43;6.68;;;;;;;22.61;80.48;98406.78;5031883;28;20674;-60
2022/06/18 06:32:08;;;;;;;7.22;6.63;;;;;;;22.76;79.54;98410.25;5031734;28;20547;-59
2022/06/18 06:34:34;;;;;;;8.20;6.38;;;;;;;22.88;79.31;98411.44;5031709;28;20166;-60
2022/06/18 06:36:59;;;;;;;6.82;6.18;;;;;;;22.98;78.40;98401.44;5031691;28;20181;-60
2022/06/18 06:39:25;;;;;;;9.55;6.28;;;;;;;23.08;77.94;98411.72;5031621;28;20173;-61
2022/06/18 06:41:50;;;;;;;6.97;6.00;;;;;;;23.25;75.59;98416.63;5032656;28;20249;-60
2022/06/18 06:44:15;;;;;;;6.75;6.15;;;;;;;23.38;76.03;98416.81;5035438;28;20223;-60
2022/06/18 06:46:41;;;;;;;6.63;6.07;;;;;;;23.49;75.96;98418.13;5035324;28;20181;-60
2022/06/18 06:49:06;;;;;;;8.48;5.95;;;;;;;23.59;75.88;98418.66;5035366;28;20280;-60
2022/06/18 06:51:36;;;;;;;6.35;5.85;;;;;;;23.54;74.74;98419.22;5034433;28;20181;-60
2022/06/18 06:54:02;;;;;;;6.72;5.93;;;;;;;23.60;74.53;98421.09;5035220;28;20190;-60
2022/06/18 06:59:12;;;;;;;8.43;6.43;;;;;;;23.87;73.93;98423.03;5035470;28;20564;-60
2022/06/18 07:01:37;;;;;;;9.15;6.28;;;;;;;23.95;73.83;98419.50;5034779;28;20197;-60
2022/06/18 07:04:09;;;;;;;9.15;6.55;;;;;;;24.18;72.03;98420.91;5035154;28;20248;-60
2022/06/18 07:06:35;;;;;;;5.20;4.80;;;;;;;24.17;68.00;98412.19;5034992;28;20528;-60
2022/06/18 07:09:03;;;;;;;5.72;5.13;;;;;;;24.12;68.42;98420.88;5017068;28;20233;-60
2022/06/18 07:11:28;;;;;;;7.68;5.30;;;;;;;24.18;68.78;98405.03;5034980;28;20205;-60
2022/06/18 07:13:54;;;;;;;7.43;5.82;;;;;;;24.33;68.75;98409.25;5034884;28;20703;-60
2022/06/18 07:16:19;;;;;;;6.45;5.05;;;;;;;24.55;68.12;98408.19;5034808;28;20166;-60
2022/06/18 07:18:45;;;;;;;6.15;5.07;;;;;;;24.60;66.90;98413.75;5034883;28;20168;-60
2022/06/18 07:21:15;;;;;;;6.32;5.20;;;;;;;24.79;65.62;98421.00;5034764;28;20174;-60
2022/06/18 07:23:41;;;;;;;7.60;5.10;;;;;;;24.94;65.39;98415.59;5035035;28;20170;-61
2022/06/18 07:26:07;;;;;;;4.50;4.05;;;;;;;25.15;60.56;98416.34;5034613;28;20181;-61
2022/06/18 07:28:33;;;;;;;5.30;3.55;;;;;;;25.36;59.42;98423.41;5034645;28;20180;-61
2022/06/18 07:30:59;;;;;;;6.15;3.17;;;;;;;25.51;57.77;98422.25;5034545;28;20189;-60
2022/06/18 07:33:26;;;;;;;4.07;3.67;;;;;;;25.67;58.82;98421.88;5034572;28;20201;-61
2022/06/18 07:35:52;;;;;;;3.53;3.30;;;;;;;25.85;58.37;98429.25;5034536;28;20181;-60
2022/06/18 07:38:18;;;;;;;4.53;3.83;;;;;;;25.94;57.53;98428.09;5034447;28;20256;-60
2022/06/18 07:40:50;;;;;;;3.90;3.53;;;;;;;26.03;56.39;98427.72;5034394;28;20169;-60
2022/06/18 07:43:20;;;;;;;7.03;3.72;;;;;;;26.04;57.32;98429.34;5034421;28;20244;-61
2022/06/18 07:45:46;;;;;;;3.83;3.53;;;;;;;26.09;57.76;98426.91;5034365;28;20176;-60
2022/06/18 07:48:13;;;;;;;3.80;3.50;;;;;;;26.25;56.34;98423.81;5034532;28;20253;-61
2022/06/18 07:50:43;;;;;;;6.65;3.40;;;;;;;26.35;55.78;98426.09;5034180;28;20190;-61
2022/06/18 07:53:15;;;;;;;4.78;3.08;;;;;;;26.45;54.07;98427.31;5034334;28;20174;-60
2022/06/18 07:55:40;;;;;;;3.63;3.17;;;;;;;26.54;53.91;98431.41;5034328;28;20173;-61
2022/06/18 07:58:06;;;;;;;3.90;3.60;;;;;;;26.65;53.63;98433.47;5034054;28;20165;-61
2022/06/18 08:00:31;;;;;;;4.32;3.70;;;;;;;26.75;53.22;98441.81;5034178;28;20166;-61
2022/06/18 08:02:57;;;;;;;4.93;3.70;;;;;;;26.87;52.90;98442.81;5033947;28;20193;-61
2022/06/18 08:05:25;;;;;;;6.05;3.60;;;;;;;27.04;51.73;98452.00;5033878;28;20183;-61
2022/06/18 08:07:51;;;;;;;7.28;3.42;;;;;;;27.20;50.66;98453.41;5033816;28;20638;-61
2022/06/18 08:10:17;;;;;;;4.72;3.58;;;;;;;27.34;50.72;98453.16;5033808;28;20192;-60
2022/06/18 08:12:43;;;;;;;4.22;3.85;;;;;;;27.37;49.81;98452.75;5034090;28;20177;-61
2022/06/18 08:15:09;;;;;;;5.32;4.00;;;;;;;27.34;49.54;98452.38;5015867;28;20181;-63
2022/06/18 08:17:36;;;;;;;6.50;3.38;;;;;;;27.27;49.02;98449.72;5033672;28;20259;-61
2022/06/18 08:20:03;;;;;;;5.85;3.88;;;;;;;27.27;49.03;98452.38;5033869;28;20560;-60
2022/06/18 08:22:30;;;;;;;5.28;3.05;;;;;;;27.28;49.95;98451.34;5033666;28;20657;-60
2022/06/18 08:24:56;;;;;;;4.28;3.55;;;;;;;27.27;48.96;98448.88;5033735;28;20197;-61
2022/06/18 08:27:21;;;;;;;4.22;3.70;;;;;;;27.25;49.82;98445.63;5033470;28;20228;-61
2022/06/18 08:29:47;;;;;;;7.57;4.13;;;;;;;27.15;50.87;98440.72;5033362;28;20690;-61
2022/06/18 08:32:13;;;;;;;4.20;3.83;;;;;;;27.17;51.16;98446.66;5033459;28;20255;-61
2022/06/18 08:34:38;;;;;;;4.47;3.83;;;;;;;27.12;51.16;98446.44;5033479;28;20256;-60
2022/06/18 08:37:06;;;;;;;5.47;4.93;;;;;;;27.17;51.80;98437.91;5033616;28;20174;-61
2022/06/18 08:39:33;;;;;;;6.28;4.50;;;;;;;27.16;52.23;98441.56;5033492;28;20239;-60
2022/06/18 08:42:03;;;;;;;4.97;4.47;;;;;;;27.30;52.87;98438.66;5033283;28;20610;-60
2022/06/18 08:44:56;;;;;;;5.97;4.47;;;;;;;27.33;51.70;98435.59;5033264;28;20665;-61
2022/06/18 08:47:40;;;;;;;4.75;4.30;;;;;;;27.19;52.57;98438.50;5033740;28;20695;-61
2022/06/18 08:50:35;;;;;;;7.10;4.68;;;;;;;26.99;52.47;98446.47;5033075;28;20264;-60
2022/06/18 08:53:03;;;;;;;4.47;4.15;;;;;;;26.79;53.56;98440.41;5033001;28;20182;-61
2022/06/18 08:55:57;;;;;;;6.70;4.40;;;;;;;26.79;54.18;98445.72;5033286;28;20173;-60
2022/06/18 08:58:28;;;;;;;4.97;4.35;;;;;;;26.80;53.69;98447.34;5032909;28;20170;-60
2022/06/18 09:01:15;;;;;;;5.57;4.50;;;;;;;26.84;53.43;98451.22;5033255;28;20184;-60
2022/06/18 09:04:01;;;;;;;4.75;4.35;;;;;;;26.91;53.75;98444.06;5032923;28;20184;-61
2022/06/18 09:06:47;;;;;;;6.07;4.43;;;;;;;26.92;53.74;98443.03;5032939;28;20170;-60
2022/06/18 09:09:16;;;;;;;5.35;4.95;;;;;;;26.95;53.17;98445.25;5032600;28;20628;-61
2022/06/18 09:11:53;;;;;;;5.63;5.00;;;;;;;26.85;54.27;98450.19;5032947;28;20181;-60
2022/06/18 09:14:26;;;;;;;11.30;5.93;;;;;;;26.32;57.00;98448.56;5033077;28;20200;-61
2022/06/18 09:17:24;;;;;;;8.40;5.75;;;;;;;26.37;57.96;98443.44;5032557;28;20166;-61
2022/06/18 09:20:01;;;;;;;6.47;5.88;;;;;;;26.46;57.68;98444.03;5009302;28;20654;-60
2022/06/18 09:22:30;;;;;;;6.68;5.43;;;;;;;26.58;56.51;98437.97;5014856;28;20646;-59
2022/06/18 09:25:03;;;;;;;7.07;6.07;;;;;;;26.69;55.34;98440.00;5032419;28;20169;-60
2022/06/18 09:27:46;;;;;;;7.07;6.38;;;;;;;26.78;56.53;98433.47;5032593;28;20550;-60
2022/06/18 09:30:18;;;;;;;6.88;6.07;;;;;;;26.85;55.93;98422.81;5032507;28;20720;-60
2022/06/18 09:32:48;;;;;;;6.10;5.60;;;;;;;26.96;55.90;98415.03;5032583;28;20178;-60
2022/06/18 09:35:36;;;;;;;5.70;5.18;;;;;;;26.95;55.85;98416.03;5032613;28;20571;-60
2022/06/18 09:38:31;;;;;;;5.55;5.05;;;;;;;26.85;55.72;98417.50;5032313;28;20165;-60
2022/06/18 09:41:01;;;;;;;8.10;5.53;;;;;;;26.99;55.16;98419.91;5031730;28;20188;-60
2022/06/18 09:43:42;;;;;;;7.43;5.85;;;;;;;27.11;56.33;98430.72;5032410;28;20231;-60
2022/06/18 09:46:37;;;;;;;6.05;5.47;;;;;;;27.03;54.98;98431.78;5014495;28;20169;-60
2022/06/18 09:49:02;;;;;;;6.32;5.20;;;;;;;27.05;56.63;98435.03;5026550;28;20189;-60
2022/06/18 09:54:53;;;;;;;8.02;6.80;;;;;;;27.05;52.54;98452.81;5032431;28;20284;-59
2022/06/18 09:57:22;;;;;;;7.00;4.65;;;;;;;27.00;51.43;98456.09;5032182;28;20161;-60
2022/06/18 09:59:59;;;;;;;5.53;5.03;;;;;;;26.89;51.84;98450.59;5032040;28;20185;-60
2022/06/18 10:02:28;;;;;;;20.38;8.75;;;;;;;26.66;52.71;98453.66;5031917;28;20223;-61
2022/06/18 10:07:46;;;;;;;24.98;13.18;;;;;;;26.39;53.45;98461.81;5032142;28;20258;-60
2022/06/18 10:10:15;;;;;;;20.13;10.65;;;;;;;26.32;53.99;98456.50;5031977;28;20185;-59
2022/06/18 10:12:48;;;;;;;18.83;9.75;;;;;;;26.16;55.57;98464.84;5031902;28;20174;-60
2022/06/18 10:15:17;;;;;;;7.25;5.78;;;;;;;25.98;55.19;98459.31;5032129;28;20181;-60
2022/06/18 10:18:00;;;;;;;6.05;5.40;;;;;;;25.71;55.65;98467.38;5036247;28;20177;-60
2022/06/18 10:20:40;;;;;;;7.80;5.45;;;;;;;25.79;56.34;98483.09;5035943;28;20560;-60
2022/06/18 10:23:29;;;;;;;7.65;5.22;;;;;;;25.75;61.36;98498.59;5035849;28;20166;-60
2022/06/18 10:26:12;;;;;;;19.13;5.38;;;;;;;25.29;63.36;98504.66;5028011;28;20185;-60
2022/06/18 10:29:13;;;;;;;14.73;4.88;;;;;;;24.94;64.90;98509.09;5036011;28;20170;-60
2022/06/18 10:31:59;;;;;;;5.47;3.78;;;;;;;24.52;63.75;98497.72;5035834;28;20169;-60
2022/06/18 10:34:30;;;;;;;5.97;4.22;;;;;;;24.23;64.70;98497.06;5035649;28;20363;-60
2022/06/18 10:36:59;;;;;;;7.60;2.42;;;;;;;24.23;65.37;98516.38;5034445;28;20565;-59
2022/06/18 10:39:50;;;;;;;11.25;3.65;;;;;;;23.60;73.96;98504.84;5035724;28;20608;-59
2022/06/18 10:42:45;;;;;;;13.30;5.30;;;;;;;23.51;80.56;98540.28;5027130;28;20620;-59
2022/06/18 10:45:39;;;;;;;15.05;6.13;;;;;;;23.17;87.50;98561.94;5034662;28;20173;-60
2022/06/18 10:48:14;;;;;;;8.98;2.85;;;;;;;22.71;78.76;98575.34;5035432;28;20161;-60
2022/06/18 10:50:47;;;;;;;4.07;3.30;;;;;;;22.21;84.07;98585.56;5035270;28;20196;-60
2022/06/18 10:53:15;;;;;;;4.20;3.22;;;;;;;22.03;85.38;98579.75;5035339;28;20193;-60
2022/06/18 10:55:41;;;;;;;4.03;3.20;;;;;;;21.92;94.29;98588.03;5035064;28;20174;-61
2022/06/18 10:58:15;;;;;;;8.10;3.80;;;;;;;21.74;92.97;98596.16;5035147;28;20184;-60
2022/06/18 11:00:58;;;;;;;5.03;3.67;;;;;;;21.39;94.72;98606.28;5035121;28;20207;-59
2022/06/18 11:03:28;;;;;;;3.83;3.50;;;;;;;20.46;100.00;98600.69;5035119;28;20570;-60
2022/06/18 11:05:54;;;;;;;4.30;3.30;;;;;;;20.11;100.00;98603.56;5035430;28;20216;-60
2022/06/18 11:08:29;;;;;;;2.60;2.40;;;;;;;19.79;100.00;98598.97;5017616;28;20255;-60
2022/06/18 11:11:04;;;;;;;4.85;2.75;;;;;;;19.60;100.00;98593.13;5035438;28;20257;-60
2022/06/18 11:13:36;;;;;;;3.67;2.97;;;;;;;19.34;100.00;98600.19;5034816;28;20196;-59
2022/06/18 11:16:15;;;;;;;4.00;2.92;;;;;;;18.91;100.00;98597.56;5034834;28;20165;-59
2022/06/18 11:18:49;;;;;;;2.95;2.60;;;;;;;18.68;100.00;98593.78;5035458;28;20253;-59
2022/06/18 11:21:26;;;;;;;4.88;3.10;;;;;;;18.62;100.00;98586.53;5034775;28;20178;-59
2022/06/18 11:24:05;;;;;;;5.20;3.50;;;;;;;18.70;100.00;98594.44;5034993;28;20257;-59
2022/06/18 11:26:31;;;;;;;4.60;3.72;;;;;;;18.80;100.00;98596.03;5034699;28;20166;-59
2022/06/18 11:29:07;;;;;;;5.05;4.00;;;;;;;18.86;100.00;98584.09;5033942;28;20205;-59
2022/06/18 11:31:35;;;;;;;3.22;3.03;;;;;;;18.96;100.00;98584.84;5016817;28;20172;-59
2022/06/18 11:34:04;;;;;;;3.85;3.50;;;;;;;19.03;100.00;98589.31;5034559;28;20174;-60
2022/06/18 11:36:55;;;;;;;5.30;3.35;;;;;;;18.99;100.00;98597.63;5034530;28;20169;-59
2022/06/18 11:39:41;;;;;;;7.70;4.32;;;;;;;19.12;100.00;98596.25;5034722;28;20246;-60
2022/06/18 11:42:22;;;;;;;3.42;3.22;;;;;;;19.33;100.00;98591.50;5034322;28;20197;-60
2022/06/18 11:44:58;;;;;;;7.18;4.03;;;;;;;19.45;100.00;98592.06;5034561;28;20162;-60
2022/06/18 11:47:33;;;;;;;3.28;3.08;;;;;;;19.56;100.00;98599.66;5034591;28;20657;-60
2022/06/18 11:50:16;;;;;;;4.60;3.75;;;;;;;19.61;100.00;98600.03;5034367;28;20189;-60
2022/06/18 11:52:51;;;;;;;3.67;3.35;;;;;;;19.39;100.00;98608.44;5034308;28;20166;-60
2022/06/18 11:55:20;;;;;;;3.97;3.40;;;;;;;19.42;100.00;98608.13;5034491;28;20185;-60
2022/06/18 11:57:55;;;;;;;3.60;3.30;;;;;;;19.42;100.00;98608.94;5034389;28;20189;-60
2022/06/18 12:00:44;;;;;;;6.20;4.13;;;;;;;19.43;100.00;98617.66;5034369;28;20215;-60
2022/06/18 12:03:21;;;;;;;3.35;3.15;;;;;;;19.28;100.00;98611.31;5034214;28;20201;-60
2022/06/18 12:05:57;;;;;;;3.58;2.60;;;;;;;19.17;100.00;98622.06;5034295;28;20165;-60